sensor_id;sensor_type;location;lat;lon;timestamp;pressure;altitude;pressure_sealevel;temperature;humidity
67740;BME280;54536;50.090;14.420;2023-02-18T00:01:46;99657.78;;;13.10;67.51
67740;BME280;54536;50.090;14.420;2023-02-18T00:04:13;99652.13;;;13.05;66.96
67740;BME280;54536;50.090;14.420;2023-02-18T00:06:39;99661.56;;;13.08;66.68
67740;BME280;54536;50.090;14.420;2023-02-18T00:09:05;99659.22;;;13.05;66.98
67740;BME280;54536;50.090;14.420;2023-02-18T00:11:34;99670.72;;;13.04;66.56
67740;BME280;54536;50.090;14.420;2023-02-18T00:14:05;99683.38;;;13.00;66.47
67740;BME280;54536;50.090;14.420;2023-02-18T00:16:32;99661.84;;;13.05;66.01
67740;BME280;54536;50.090;14.420;2023-02-18T00:19:01;99668.09;;;13.04;66.44
67740;BME280;54536;50.090;14.420;2023-02-18T00:21:29;99678.53;;;13.05;65.90
67740;BME280;54536;50.090;14.420;2023-02-18T00:23:56;99677.00;;;13.03;66.78
67740;BME280;54536;50.090;14.420;2023-02-18T00:26:29;99688.25;;;13.05;66.85
67740;BME280;54536;50.090;14.420;2023-02-18T00:28:57;99685.91;;;13.02;66.55
67740;BME280;54536;50.090;14.420;2023-02-18T00:31:26;99689.38;;;13.02;67.07
67740;BME280;54536;50.090;14.420;2023-02-18T00:33:54;99682.69;;;13.08;66.69
67740;BME280;54536;50.090;14.420;2023-02-18T00:36:36;99687.09;;;13.07;66.97
67740;BME280;54536;50.090;14.420;2023-02-18T00:39:05;99689.66;;;12.99;66.97
67740;BME280;54536;50.090;14.420;2023-02-18T00:41:33;99689.78;;;12.98;67.62
67740;BME280;54536;50.090;14.420;2023-02-18T00:44:00;99691.03;;;13.03;67.13
67740;BME280;54536;50.090;14.420;2023-02-18T00:46:27;99688.78;;;13.08;67.01
67740;BME280;54536;50.090;14.420;2023-02-18T00:48:55;99686.06;;;12.91;68.15
67740;BME280;54536;50.090;14.420;2023-02-18T00:51:23;99689.50;;;13.01;67.38
67740;BME280;54536;50.090;14.420;2023-02-18T00:53:50;99689.50;;;13.01;67.15
67740;BME280;54536;50.090;14.420;2023-02-18T00:56:17;99697.28;;;13.02;67.35
67740;BME280;54536;50.090;14.420;2023-02-18T00:58:43;99684.75;;;13.04;67.48
67740;BME280;54536;50.090;14.420;2023-02-18T01:01:10;99687.00;;;12.99;66.74
67740;BME280;54536;50.090;14.420;2023-02-18T01:03:38;99683.00;;;12.95;67.22
67740;BME280;54536;50.090;14.420;2023-02-18T01:06:06;99688.38;;;13.03;65.68
67740;BME280;54536;50.090;14.420;2023-02-18T01:08:35;99674.22;;;12.95;65.26
67740;BME280;54536;50.090;14.420;2023-02-18T01:11:04;99683.88;;;12.86;65.62
67740;BME280;54536;50.090;14.420;2023-02-18T01:13:31;99673.03;;;12.89;64.67
67740;BME280;54536;50.090;14.420;2023-02-18T01:15:58;99674.25;;;12.85;65.14
67740;BME280;54536;50.090;14.420;2023-02-18T01:18:25;99664.56;;;12.85;63.73
67740;BME280;54536;50.090;14.420;2023-02-18T01:20:52;99673.69;;;12.91;64.41
67740;BME280;54536;50.090;14.420;2023-02-18T01:23:19;99668.00;;;12.96;63.20
67740;BME280;54536;50.090;14.420;2023-02-18T01:25:47;99668.03;;;12.86;62.83
67740;BME280;54536;50.090;14.420;2023-02-18T01:28:14;99665.66;;;12.93;62.32
67740;BME280;54536;50.090;14.420;2023-02-18T01:30:40;99680.09;;;12.98;61.64
67740;BME280;54536;50.090;14.420;2023-02-18T01:33:07;99678.84;;;12.93;62.10
67740;BME280;54536;50.090;14.420;2023-02-18T01:35:33;99671.06;;;12.91;61.55
67740;BME280;54536;50.090;14.420;2023-02-18T01:38:02;99678.56;;;12.96;61.10
67740;BME280;54536;50.090;14.420;2023-02-18T01:40:29;99687.03;;;12.89;60.35
67740;BME280;54536;50.090;14.420;2023-02-18T01:42:55;99685.09;;;12.92;60.75
67740;BME280;54536;50.090;14.420;2023-02-18T01:45:41;99691.50;;;12.89;59.85
67740;BME280;54536;50.090;14.420;2023-02-18T01:48:25;99695.91;;;12.98;59.71
67740;BME280;54536;50.090;14.420;2023-02-18T01:51:04;99690.47;;;13.00;58.97
67740;BME280;54536;50.090;14.420;2023-02-18T01:53:41;99691.72;;;13.05;58.81
67740;BME280;54536;50.090;14.420;2023-02-18T01:56:13;99688.00;;;12.98;59.19
67740;BME280;54536;50.090;14.420;2023-02-18T01:58:42;99692.28;;;12.99;59.03
67740;BME280;54536;50.090;14.420;2023-02-18T02:01:09;99693.81;;;13.02;59.09
67740;BME280;54536;50.090;14.420;2023-02-18T02:03:36;99692.97;;;13.01;59.21
67740;BME280;54536;50.090;14.420;2023-02-18T02:06:14;99691.03;;;13.03;59.26
67740;BME280;54536;50.090;14.420;2023-02-18T02:08:42;99693.63;;;13.13;59.08
67740;BME280;54536;50.090;14.420;2023-02-18T02:34:46;99662.19;;;12.92;57.93
67740;BME280;54536;50.090;14.420;2023-02-18T02:37:19;99650.72;;;13.01;57.49
67740;BME280;54536;50.090;14.420;2023-02-18T02:50:43;99653.13;;;12.95;57.00
67740;BME280;54536;50.090;14.420;2023-02-18T02:53:27;99654.53;;;12.89;57.10
67740;BME280;54536;50.090;14.420;2023-02-18T02:55:54;99663.53;;;12.96;57.33
67740;BME280;54536;50.090;14.420;2023-02-18T02:58:22;99672.03;;;12.90;57.08
67740;BME280;54536;50.090;14.420;2023-02-18T03:01:35;99665.09;;;12.89;57.11
67740;BME280;54536;50.090;14.420;2023-02-18T03:12:52;99674.63;;;13.00;57.28
67740;BME280;54536;50.090;14.420;2023-02-18T03:15:56;99679.81;;;12.92;57.35
67740;BME280;54536;50.090;14.420;2023-02-18T03:18:45;99669.78;;;13.05;57.95
67740;BME280;54536;50.090;14.420;2023-02-18T03:21:48;99673.13;;;12.97;58.01
67740;BME280;54536;50.090;14.420;2023-02-18T03:24:26;99674.06;;;13.06;58.16
67740;BME280;54536;50.090;14.420;2023-02-18T03:27:00;99666.56;;;13.01;57.38
67740;BME280;54536;50.090;14.420;2023-02-18T03:29:29;99656.69;;;13.03;57.76
67740;BME280;54536;50.090;14.420;2023-02-18T03:32:02;99650.59;;;13.03;57.88
67740;BME280;54536;50.090;14.420;2023-02-18T03:34:44;99659.88;;;13.07;57.87
67740;BME280;54536;50.090;14.420;2023-02-18T03:37:14;99671.72;;;13.03;57.25
67740;BME280;54536;50.090;14.420;2023-02-18T03:39:45;99660.47;;;13.01;57.54
67740;BME280;54536;50.090;14.420;2023-02-18T03:42:15;99666.53;;;13.11;56.81
67740;BME280;54536;50.090;14.420;2023-02-18T03:44:41;99666.44;;;13.03;57.85
67740;BME280;54536;50.090;14.420;2023-02-18T03:47:07;99669.91;;;13.03;57.87
67740;BME280;54536;50.090;14.420;2023-02-18T03:49:33;99668.78;;;13.06;57.47
67740;BME280;54536;50.090;14.420;2023-02-18T03:51:59;99668.75;;;13.16;57.50
67740;BME280;54536;50.090;14.420;2023-02-18T03:54:25;99667.09;;;13.15;57.60
67740;BME280;54536;50.090;14.420;2023-02-18T03:56:52;99669.06;;;13.03;56.93
67740;BME280;54536;50.090;14.420;2023-02-18T03:59:18;99670.72;;;13.04;57.11
67740;BME280;54536;50.090;14.420;2023-02-18T04:01:44;99667.25;;;13.03;57.34
67740;BME280;54536;50.090;14.420;2023-02-18T04:04:10;99670.88;;;13.02;57.03
67740;BME280;54536;50.090;14.420;2023-02-18T04:06:36;99669.63;;;13.06;57.27
67740;BME280;54536;50.090;14.420;2023-02-18T04:09:02;99651.59;;;13.02;57.34
67740;BME280;54536;50.090;14.420;2023-02-18T04:11:38;99654.06;;;13.03;56.73
67740;BME280;54536;50.090;14.420;2023-02-18T04:14:05;99663.59;;;13.14;57.08
67740;BME280;54536;50.090;14.420;2023-02-18T04:16:32;99667.75;;;12.89;57.50
67740;BME280;54536;50.090;14.420;2023-02-18T04:18:58;99663.38;;;12.98;57.16
67740;BME280;54536;50.090;14.420;2023-02-18T04:21:25;99664.63;;;13.03;57.33
67740;BME280;54536;50.090;14.420;2023-02-18T04:23:51;99665.06;;;12.99;57.08
67740;BME280;54536;50.090;14.420;2023-02-18T04:26:17;99660.75;;;12.98;57.24
67740;BME280;54536;50.090;14.420;2023-02-18T04:28:43;99669.91;;;13.03;56.66
67740;BME280;54536;50.090;14.420;2023-02-18T04:31:09;99672.56;;;12.94;56.96
67740;BME280;54536;50.090;14.420;2023-02-18T04:33:36;99667.72;;;12.99;56.94
67740;BME280;54536;50.090;14.420;2023-02-18T04:36:02;99663.38;;;12.98;56.70
67740;BME280;54536;50.090;14.420;2023-02-18T04:38:28;99660.06;;;12.96;56.85
67740;BME280;54536;50.090;14.420;2023-02-18T04:40:54;99663.00;;;12.93;57.02
67740;BME280;54536;50.090;14.420;2023-02-18T04:43:20;99652.16;;;12.96;56.92
67740;BME280;54536;50.090;14.420;2023-02-18T04:45:47;99655.63;;;12.96;56.62
67740;BME280;54536;50.090;14.420;2023-02-18T04:48:13;99656.63;;;12.95;56.79
67740;BME280;54536;50.090;14.420;2023-02-18T04:50:39;99665.09;;;12.89;56.61
67740;BME280;54536;50.090;14.420;2023-02-18T04:53:05;99664.13;;;12.90;57.10
67740;BME280;54536;50.090;14.420;2023-02-18T04:55:31;99665.78;;;12.91;56.38
67740;BME280;54536;50.090;14.420;2023-02-18T04:57:57;99676.50;;;12.89;56.27
67740;BME280;54536;50.090;14.420;2023-02-18T05:00:23;99670.75;;;12.94;55.89
67740;BME280;54536;50.090;14.420;2023-02-18T05:02:49;99671.59;;;12.95;55.99
67740;BME280;54536;50.090;14.420;2023-02-18T05:05:15;99665.78;;;12.91;55.89
67740;BME280;54536;50.090;14.420;2023-02-18T05:07:41;99671.75;;;12.93;56.54
67740;BME280;54536;50.090;14.420;2023-02-18T05:10:09;99671.22;;;12.89;56.26
67740;BME280;54536;50.090;14.420;2023-02-18T05:12:35;99678.00;;;12.92;56.46
67740;BME280;54536;50.090;14.420;2023-02-18T05:15:02;99670.22;;;12.91;56.21
67740;BME280;54536;50.090;14.420;2023-02-18T05:17:28;99675.91;;;12.96;55.88
67740;BME280;54536;50.090;14.420;2023-02-18T05:19:55;99672.88;;;12.91;55.98
67740;BME280;54536;50.090;14.420;2023-02-18T05:22:21;99674.97;;;12.87;55.51
67740;BME280;54536;50.090;14.420;2023-02-18T05:24:47;99668.28;;;12.93;56.08
67740;BME280;54536;50.090;14.420;2023-02-18T05:27:13;99674.38;;;12.93;55.35
67740;BME280;54536;50.090;14.420;2023-02-18T05:29:39;99669.81;;;12.95;55.72
67740;BME280;54536;50.090;14.420;2023-02-18T05:32:05;99676.88;;;12.95;55.58
67740;BME280;54536;50.090;14.420;2023-02-18T05:34:32;99669.38;;;13.00;55.50
67740;BME280;54536;50.090;14.420;2023-02-18T05:36:57;99667.41;;;13.02;55.04
67740;BME280;54536;50.090;14.420;2023-02-18T05:39:24;99670.38;;;12.89;54.88
67740;BME280;54536;50.090;14.420;2023-02-18T05:41:50;99663.00;;;12.93;55.64
67740;BME280;54536;50.090;14.420;2023-02-18T05:44:16;99666.22;;;12.86;55.89
67740;BME280;54536;50.090;14.420;2023-02-18T05:47:00;99663.03;;;12.83;55.87
67740;BME280;54536;50.090;14.420;2023-02-18T05:49:28;99663.88;;;12.83;56.15
67740;BME280;54536;50.090;14.420;2023-02-18T05:51:54;99667.88;;;12.87;55.53
67740;BME280;54536;50.090;14.420;2023-02-18T05:54:21;99664.41;;;12.87;55.87
67740;BME280;54536;50.090;14.420;2023-02-18T05:56:47;99661.47;;;12.90;55.61
67740;BME280;54536;50.090;14.420;2023-02-18T05:59:14;99656.19;;;12.90;55.45
67740;BME280;54536;50.090;14.420;2023-02-18T06:01:40;99663.00;;;12.93;55.43
67740;BME280;54536;50.090;14.420;2023-02-18T06:04:07;99653.44;;;12.92;55.06
67740;BME280;54536;50.090;14.420;2023-02-18T06:06:34;99656.63;;;12.95;55.38
67740;BME280;54536;50.090;14.420;2023-02-18T06:09:01;99657.44;;;12.96;55.00
67740;BME280;54536;50.090;14.420;2023-02-18T06:11:27;99650.88;;;13.00;55.43
67740;BME280;54536;50.090;14.420;2023-02-18T06:13:54;99650.59;;;13.03;55.35
67740;BME280;54536;50.090;14.420;2023-02-18T06:16:20;99652.25;;;13.04;55.30
67740;BME280;54536;50.090;14.420;2023-02-18T06:18:46;99656.88;;;13.02;55.26
67740;BME280;54536;50.090;14.420;2023-02-18T06:21:12;99652.53;;;13.01;54.92
67740;BME280;54536;50.090;14.420;2023-02-18T06:23:39;99649.06;;;13.00;54.98
67740;BME280;54536;50.090;14.420;2023-02-18T06:26:05;99649.59;;;13.04;54.93
67740;BME280;54536;50.090;14.420;2023-02-18T06:28:31;99651.28;;;13.05;54.76
67740;BME280;54536;50.090;14.420;2023-02-18T06:30:57;99653.66;;;13.08;54.88
67740;BME280;54536;50.090;14.420;2023-02-18T06:33:24;99656.38;;;13.16;55.19
67740;BME280;54536;50.090;14.420;2023-02-18T06:36:00;99645.09;;;13.14;54.94
67740;BME280;54536;50.090;14.420;2023-02-18T06:38:28;99652.88;;;13.25;54.78
67740;BME280;54536;50.090;14.420;2023-02-18T06:40:54;99655.53;;;13.16;54.38
67740;BME280;54536;50.090;14.420;2023-02-18T06:43:21;99650.09;;;13.17;54.56
67740;BME280;54536;50.090;14.420;2023-02-18T06:45:47;99643.75;;;13.10;54.48
67740;BME280;54536;50.090;14.420;2023-02-18T06:48:13;99642.63;;;13.12;55.14
67740;BME280;54536;50.090;14.420;2023-02-18T06:50:40;99645.84;;;13.06;55.21
67740;BME280;54536;50.090;14.420;2023-02-18T06:53:07;99639.47;;;13.09;55.37
67740;BME280;54536;50.090;14.420;2023-02-18T06:55:33;99641.06;;;13.20;54.57
67740;BME280;54536;50.090;14.420;2023-02-18T06:57:59;99640.69;;;13.15;55.19
67740;BME280;54536;50.090;14.420;2023-02-18T07:00:25;99637.47;;;13.11;55.04
67740;BME280;54536;50.090;14.420;2023-02-18T07:02:51;99635.78;;;13.20;54.48
67740;BME280;54536;50.090;14.420;2023-02-18T07:05:17;99635.66;;;13.21;55.45
67740;BME280;54536;50.090;14.420;2023-02-18T07:07:44;99638.69;;;13.26;54.56
67740;BME280;54536;50.090;14.420;2023-02-18T07:10:10;99636.59;;;13.30;54.45
67740;BME280;54536;50.090;14.420;2023-02-18T07:12:37;99629.22;;;13.24;54.40
67740;BME280;54536;50.090;14.420;2023-02-18T07:15:03;99627.25;;;13.35;54.38
67740;BME280;54536;50.090;14.420;2023-02-18T07:17:29;99612.97;;;13.28;54.66
67740;BME280;54536;50.090;14.420;2023-02-18T07:19:55;99612.00;;;13.29;54.82
67740;BME280;54536;50.090;14.420;2023-02-18T07:22:22;99593.03;;;13.34;54.55
67740;BME280;54536;50.090;14.420;2023-02-18T07:24:52;99596.91;;;13.40;53.82
67740;BME280;54536;50.090;14.420;2023-02-18T07:27:20;99598.59;;;13.41;54.04
67740;BME280;54536;50.090;14.420;2023-02-18T07:29:46;99589.88;;;13.30;54.62
67740;BME280;54536;50.090;14.420;2023-02-18T07:32:15;99580.09;;;13.41;54.16
67740;BME280;54536;50.090;14.420;2023-02-18T07:34:41;99584.50;;;13.22;54.95
67740;BME280;54536;50.090;14.420;2023-02-18T07:37:07;99591.03;;;13.28;54.62
67740;BME280;54536;50.090;14.420;2023-02-18T07:39:41;99584.00;;;13.37;54.60
67740;BME280;54536;50.090;14.420;2023-02-18T07:42:09;99586.03;;;13.43;54.18
67740;BME280;54536;50.090;14.420;2023-02-18T07:44:35;99594.66;;;13.45;54.38
67740;BME280;54536;50.090;14.420;2023-02-18T07:47:04;99595.03;;;13.50;54.56
67740;BME280;54536;50.090;14.420;2023-02-18T07:49:31;99594.19;;;13.49;54.49
67740;BME280;54536;50.090;14.420;2023-02-18T07:51:58;99599.28;;;13.61;54.76
67740;BME280;54536;50.090;14.420;2023-02-18T07:54:24;99598.81;;;13.65;54.42
67740;BME280;54536;50.090;14.420;2023-02-18T07:56:51;99605.16;;;13.54;55.49
67740;BME280;54536;50.090;14.420;2023-02-18T07:59:17;99607.34;;;13.59;55.02
67740;BME280;54536;50.090;14.420;2023-02-18T08:01:43;99612.25;;;13.54;54.97
67740;BME280;54536;50.090;14.420;2023-02-18T08:04:09;99616.31;;;13.48;55.28
67740;BME280;54536;50.090;14.420;2023-02-18T08:06:39;99605.47;;;13.51;55.15
67740;BME280;54536;50.090;14.420;2023-02-18T08:09:06;99613.44;;;13.59;55.86
67740;BME280;54536;50.090;14.420;2023-02-18T08:11:33;99601.22;;;13.58;55.23
67740;BME280;54536;50.090;14.420;2023-02-18T08:13:59;99605.69;;;13.58;55.22
67740;BME280;54536;50.090;14.420;2023-02-18T08:16:26;99589.06;;;13.66;55.19
67740;BME280;54536;50.090;14.420;2023-02-18T08:18:53;99592.78;;;13.73;55.83
67740;BME280;54536;50.090;14.420;2023-02-18T08:21:22;99586.53;;;13.74;54.98
67740;BME280;54536;50.090;14.420;2023-02-18T08:23:49;99595.72;;;13.70;55.51
67740;BME280;54536;50.090;14.420;2023-02-18T08:26:16;99586.75;;;13.80;55.12
67740;BME280;54536;50.090;14.420;2023-02-18T08:28:44;99583.50;;;13.87;55.45
67740;BME280;54536;50.090;14.420;2023-02-18T08:31:22;99580.53;;;13.90;54.89
67740;BME280;54536;50.090;14.420;2023-02-18T08:33:51;99579.78;;;13.97;55.08
67740;BME280;54536;50.090;14.420;2023-02-18T08:36:18;99563.13;;;14.05;55.25
67740;BME280;54536;50.090;14.420;2023-02-18T08:38:45;99568.28;;;13.89;56.14
67740;BME280;54536;50.090;14.420;2023-02-18T08:41:11;99556.59;;;13.91;56.34
67740;BME280;54536;50.090;14.420;2023-02-18T08:43:39;99551.50;;;13.98;55.80
67740;BME280;54536;50.090;14.420;2023-02-18T08:46:06;99557.19;;;14.03;55.61
67740;BME280;54536;50.090;14.420;2023-02-18T08:48:32;99552.44;;;14.15;55.11
67740;BME280;54536;50.090;14.420;2023-02-18T08:50:59;99538.31;;;14.24;55.17
67740;BME280;54536;50.090;14.420;2023-02-18T08:53:25;99539.53;;;14.12;55.50
67740;BME280;54536;50.090;14.420;2023-02-18T08:55:53;99530.53;;;14.22;54.85
67740;BME280;54536;50.090;14.420;2023-02-18T08:58:19;99530.06;;;14.27;54.92
67740;BME280;54536;50.090;14.420;2023-02-18T09:00:46;99528.44;;;14.34;55.23
67740;BME280;54536;50.090;14.420;2023-02-18T09:03:13;99532.31;;;14.22;54.77
67740;BME280;54536;50.090;14.420;2023-02-18T09:05:41;99534.41;;;14.36;55.10
67740;BME280;54536;50.090;14.420;2023-02-18T09:08:08;99526.06;;;14.23;55.06
67740;BME280;54536;50.090;14.420;2023-02-18T09:10:35;99535.75;;;14.40;54.97
67740;BME280;54536;50.090;14.420;2023-02-18T09:13:01;99533.59;;;14.36;54.84
67740;BME280;54536;50.090;14.420;2023-02-18T09:15:28;99528.28;;;14.36;55.55
67740;BME280;54536;50.090;14.420;2023-02-18T09:17:57;99539.41;;;14.47;55.45
67740;BME280;54536;50.090;14.420;2023-02-18T09:20:23;99530.94;;;14.62;55.14
67740;BME280;54536;50.090;14.420;2023-02-18T09:22:50;99528.28;;;14.62;55.07
67740;BME280;54536;50.090;14.420;2023-02-18T09:25:17;99525.63;;;14.62;55.09
67740;BME280;54536;50.090;14.420;2023-02-18T09:27:43;99513.88;;;14.64;55.14
67740;BME280;54536;50.090;14.420;2023-02-18T09:30:10;99516.19;;;14.59;54.93
67740;BME280;54536;50.090;14.420;2023-02-18T09:32:37;99528.00;;;14.73;55.32
67740;BME280;54536;50.090;14.420;2023-02-18T09:35:04;99530.44;;;14.66;54.80
67740;BME280;54536;50.090;14.420;2023-02-18T09:37:30;99518.91;;;14.75;54.71
67740;BME280;54536;50.090;14.420;2023-02-18T09:39:57;99522.38;;;14.76;55.41
67740;BME280;54536;50.090;14.420;2023-02-18T09:42:31;99512.22;;;14.63;55.34
67740;BME280;54536;50.090;14.420;2023-02-18T09:45:03;99504.28;;;14.63;55.47
67740;BME280;54536;50.090;14.420;2023-02-18T09:47:39;99496.53;;;14.62;55.02
67740;BME280;54536;50.090;14.420;2023-02-18T09:50:18;99504.13;;;14.65;55.23
67740;BME280;54536;50.090;14.420;2023-02-18T09:52:46;99496.53;;;14.70;55.70
67740;BME280;54536;50.090;14.420;2023-02-18T09:55:22;99489.72;;;14.59;55.87
67740;BME280;54536;50.090;14.420;2023-02-18T09:57:56;99479.66;;;14.63;55.70
67740;BME280;54536;50.090;14.420;2023-02-18T10:00:37;99474.38;;;14.71;55.30
67740;BME280;54536;50.090;14.420;2023-02-18T10:05:42;99478.31;;;14.59;56.17
67740;BME280;54536;50.090;14.420;2023-02-18T10:08:27;99479.19;;;14.75;55.68
67740;BME280;54536;50.090;14.420;2023-02-18T10:10:54;99467.28;;;14.71;55.87
67740;BME280;54536;50.090;14.420;2023-02-18T10:13:26;99466.47;;;14.87;55.13
67740;BME280;54536;50.090;14.420;2023-02-18T10:15:53;99460.22;;;14.88;55.02
67740;BME280;54536;50.090;14.420;2023-02-18T10:18:42;99451.63;;;14.94;55.44
67740;BME280;54536;50.090;14.420;2023-02-18T10:21:15;99444.00;;;14.99;54.89
67740;BME280;54536;50.090;14.420;2023-02-18T10:24:05;99441.50;;;14.90;55.59
67740;BME280;54536;50.090;14.420;2023-02-18T10:26:36;99427.97;;;15.01;55.12
67740;BME280;54536;50.090;14.420;2023-02-18T10:29:19;99406.63;;;15.11;55.40
67740;BME280;54536;50.090;14.420;2023-02-18T10:32:06;99416.50;;;15.01;55.70
67740;BME280;54536;50.090;14.420;2023-02-18T10:34:53;99419.84;;;14.94;56.81
67740;BME280;54536;50.090;14.420;2023-02-18T10:37:40;99414.03;;;15.07;56.89
67740;BME280;54536;50.090;14.420;2023-02-18T10:45:46;99385.25;;;15.12;58.07
67740;BME280;54536;50.090;14.420;2023-02-18T10:51:05;99371.50;;;15.09;58.17
67740;BME280;54536;50.090;14.420;2023-02-18T10:53:41;99359.25;;;15.16;56.70
67740;BME280;54536;50.090;14.420;2023-02-18T11:01:40;99355.41;;;15.43;55.73
67740;BME280;54536;50.090;14.420;2023-02-18T11:04:16;99348.66;;;15.32;54.99
67740;BME280;54536;50.090;14.420;2023-02-18T11:06:47;99345.13;;;15.40;54.77
67740;BME280;54536;50.090;14.420;2023-02-18T11:09:28;99355.41;;;15.51;54.14
67740;BME280;54536;50.090;14.420;2023-02-18T11:12:04;99322.63;;;15.44;53.75
67740;BME280;54536;50.090;14.420;2023-02-18T11:14:45;99326.91;;;15.53;53.95
67740;BME280;54536;50.090;14.420;2023-02-18T11:17:31;99325.09;;;15.54;52.99
67740;BME280;54536;50.090;14.420;2023-02-18T11:20:01;99316.44;;;15.76;52.92
67740;BME280;54536;50.090;14.420;2023-02-18T11:22:31;99309.97;;;15.62;52.73
67740;BME280;54536;50.090;14.420;2023-02-18T11:25:19;99311.56;;;15.88;51.92
67740;BME280;54536;50.090;14.420;2023-02-18T11:27:59;99305.97;;;15.83;51.61
67740;BME280;54536;50.090;14.420;2023-02-18T11:30:38;99293.41;;;15.68;51.39
67740;BME280;54536;50.090;14.420;2023-02-18T11:33:12;99298.03;;;15.83;50.65
67740;BME280;54536;50.090;14.420;2023-02-18T11:35:39;99302.19;;;15.77;50.34
67740;BME280;54536;50.090;14.420;2023-02-18T11:38:23;99294.31;;;15.92;50.45
67740;BME280;54536;50.090;14.420;2023-02-18T11:41:07;99303.38;;;16.06;49.62
67740;BME280;54536;50.090;14.420;2023-02-18T11:43:36;99312.72;;;15.94;49.85
67740;BME280;54536;50.090;14.420;2023-02-18T11:46:19;99301.28;;;16.47;48.85
67740;BME280;54536;50.090;14.420;2023-02-18T11:48:46;99298.16;;;16.75;48.57
67740;BME280;54536;50.090;14.420;2023-02-18T11:51:19;99281.31;;;16.59;48.19
67740;BME280;54536;50.090;14.420;2023-02-18T11:54:22;99278.09;;;16.64;47.79
67740;BME280;54536;50.090;14.420;2023-02-18T11:57:08;99276.00;;;16.59;47.75
67740;BME280;54536;50.090;14.420;2023-02-18T11:59:38;99259.28;;;16.28;47.91
67740;BME280;54536;50.090;14.420;2023-02-18T12:04:47;99263.53;;;16.14;47.59
67740;BME280;54536;50.090;14.420;2023-02-18T12:07:24;99273.47;;;16.12;47.98
67740;BME280;54536;50.090;14.420;2023-02-18T12:09:59;99250.84;;;16.01;47.79
67740;BME280;54536;50.090;14.420;2023-02-18T12:12:42;99244.25;;;15.97;48.17
67740;BME280;54536;50.090;14.420;2023-02-18T12:15:19;99255.00;;;15.96;48.38
67740;BME280;54536;50.090;14.420;2023-02-18T12:17:53;99235.38;;;15.82;48.38
67740;BME280;54536;50.090;14.420;2023-02-18T12:23:21;99238.16;;;15.88;48.32
67740;BME280;54536;50.090;14.420;2023-02-18T12:25:57;99234.59;;;15.73;48.57
67740;BME280;54536;50.090;14.420;2023-02-18T12:29:04;99217.84;;;15.73;47.78
67740;BME280;54536;50.090;14.420;2023-02-18T12:32:14;99226.16;;;15.70;47.21
67740;BME280;54536;50.090;14.420;2023-02-18T12:37:40;99230.25;;;15.33;47.64
67740;BME280;54536;50.090;14.420;2023-02-18T12:42:53;99224.88;;;15.57;46.88
67740;BME280;54536;50.090;14.420;2023-02-18T12:51:11;99196.63;;;15.33;45.17
67740;BME280;54536;50.090;14.420;2023-02-18T12:53:50;99181.13;;;15.22;44.65
67740;BME280;54536;50.090;14.420;2023-02-18T12:56:38;99197.63;;;15.32;44.65
67740;BME280;54536;50.090;14.420;2023-02-18T13:04:34;99204.47;;;15.18;44.38
67740;BME280;54536;50.090;14.420;2023-02-18T13:15:27;99181.06;;;15.38;44.66
67740;BME280;54536;50.090;14.420;2023-02-18T13:18:00;99183.69;;;15.38;44.16
67740;BME280;54536;50.090;14.420;2023-02-18T13:20:35;99208.22;;;15.32;44.31
67740;BME280;54536;50.090;14.420;2023-02-18T13:23:05;99183.56;;;15.32;44.44
67740;BME280;54536;50.090;14.420;2023-02-18T13:25:38;99215.63;;;15.53;44.01
67740;BME280;54536;50.090;14.420;2023-02-18T13:39:17;99171.78;;;15.65;44.06
67740;BME280;54536;50.090;14.420;2023-02-18T13:41:47;99178.81;;;15.66;44.31
67740;BME280;54536;50.090;14.420;2023-02-18T13:46:57;99166.72;;;15.56;43.62
67740;BME280;54536;50.090;14.420;2023-02-18T13:49:32;99160.09;;;15.60;43.36
67740;BME280;54536;50.090;14.420;2023-02-18T13:52:01;99169.69;;;15.61;42.98
67740;BME280;54536;50.090;14.420;2023-02-18T13:54:40;99176.16;;;15.58;43.25
67740;BME280;54536;50.090;14.420;2023-02-18T13:57:16;99169.06;;;15.51;42.57
67740;BME280;54536;50.090;14.420;2023-02-18T14:00:02;99155.28;;;15.55;42.92
67740;BME280;54536;50.090;14.420;2023-02-18T14:02:33;99171.13;;;15.72;42.67
67740;BME280;54536;50.090;14.420;2023-02-18T14:05:19;99167.50;;;15.64;42.38
67740;BME280;54536;50.090;14.420;2023-02-18T14:07:50;99174.16;;;15.60;42.91
67740;BME280;54536;50.090;14.420;2023-02-18T14:20:31;99159.75;;;15.23;42.59
67740;BME280;54536;50.090;14.420;2023-02-18T14:22:58;99169.84;;;15.28;42.12
67740;BME280;54536;50.090;14.420;2023-02-18T14:25:39;99177.31;;;15.25;42.86
67740;BME280;54536;50.090;14.420;2023-02-18T14:31:43;99191.72;;;15.22;42.69
67740;BME280;54536;50.090;14.420;2023-02-18T14:45:08;99162.84;;;15.35;42.23
67740;BME280;54536;50.090;14.420;2023-02-18T14:48:01;99125.81;;;15.27;42.98
67740;BME280;54536;50.090;14.420;2023-02-18T14:50:40;99156.28;;;15.23;43.07
67740;BME280;54536;50.090;14.420;2023-02-18T14:53:14;99150.19;;;15.14;42.87
67740;BME280;54536;50.090;14.420;2023-02-18T14:55:46;99159.09;;;15.21;43.09
67740;BME280;54536;50.090;14.420;2023-02-18T14:58:23;99154.16;;;15.10;42.70
67740;BME280;54536;50.090;14.420;2023-02-18T15:00:51;99150.53;;;15.11;43.01
67740;BME280;54536;50.090;14.420;2023-02-18T15:03:19;99154.88;;;15.04;43.30
67740;BME280;54536;50.090;14.420;2023-02-18T15:05:49;99166.78;;;15.08;43.93
67740;BME280;54536;50.090;14.420;2023-02-18T15:08:23;99177.50;;;15.07;43.43
67740;BME280;54536;50.090;14.420;2023-02-18T15:11:03;99192.78;;;15.05;43.92
67740;BME280;54536;50.090;14.420;2023-02-18T15:13:35;99192.97;;;14.95;44.34
67740;BME280;54536;50.090;14.420;2023-02-18T15:16:08;99183.34;;;15.02;43.94
67740;BME280;54536;50.090;14.420;2023-02-18T15:18:43;99194.13;;;14.92;44.34